Time;durP1;ratioP1;P1;durP2;ratioP2;P2;SDS_P1;SDS_P2;PMS_P1;PMS_P2;Temp;Humidity;BMP_temperature;BMP_pressure;BME280_temperature;BME280_humidity;BME280_pressure;Samples;Min_cycle;Max_cycle;Signal;HPM_P1;HPM_P2
2023/06/26 00:02:17;;;;;;;0.00;0.00;;;23.30;67.40;;;;;;5068455;28;20048;-71
2023/06/26 00:04:43;;;;;;;0.00;0.00;;;23.30;66.50;;;;;;5068106;28;20040;-71
2023/06/26 00:07:09;;;;;;;0.00;0.00;;;23.20;67.80;;;;;;5049876;28;20059;-69
2023/06/26 00:09:35;;;;;;;0.00;0.00;;;23.20;67.60;;;;;;5068351;28;20485;-71
2023/06/26 00:12:00;;;;;;;0.00;0.00;;;23.10;68.00;;;;;;5067896;28;20366;-68
2023/06/26 00:14:26;;;;;;;0.00;0.00;;;23.20;68.50;;;;;;5068444;28;20063;-69
2023/06/26 00:16:52;;;;;;;0.00;0.00;;;23.20;68.20;;;;;;5067958;28;20044;-69
2023/06/26 00:19:18;;;;;;;0.00;0.00;;;23.20;67.90;;;;;;5068383;28;20040;-71
2023/06/26 00:21:46;;;;;;;0.00;0.00;;;23.10;68.20;;;;;;5068186;28;20128;-71
2023/06/26 00:24:12;;;;;;;0.00;0.00;;;23.10;68.50;;;;;;5068376;28;20404;-71
2023/06/26 00:26:38;;;;;;;0.08;0.08;;;23.10;68.00;;;;;;5067768;28;20056;-68
2023/06/26 00:29:04;;;;;;;0.00;0.00;;;23.10;68.30;;;;;;5068497;28;20094;-71
2023/06/26 00:31:30;;;;;;;0.00;0.00;;;23.10;68.00;;;;;;5068604;28;20045;-71
2023/06/26 00:33:56;;;;;;;0.00;0.00;;;23.10;68.40;;;;;;5067985;28;20044;-69
2023/06/26 00:36:23;;;;;;;0.00;0.00;;;23.10;67.50;;;;;;5068468;28;20425;-69
2023/06/26 00:38:49;;;;;;;0.00;0.00;;;23.10;67.60;;;;;;5067325;28;20566;-68
2023/06/26 00:41:15;;;;;;;0.10;0.10;;;23.10;68.30;;;;;;5067268;28;20048;-69
2023/06/26 00:43:41;;;;;;;0.00;0.00;;;23.10;68.00;;;;;;5057593;28;20482;-69
2023/06/26 00:46:10;;;;;;;0.00;0.00;;;23.10;68.20;;;;;;5068175;28;20123;-70
2023/06/26 00:48:36;;;;;;;0.10;0.10;;;23.10;68.50;;;;;;5068274;28;20137;-70
2023/06/26 00:51:02;;;;;;;0.00;0.00;;;23.10;68.20;;;;;;5066662;28;20135;-70
2023/06/26 00:53:28;;;;;;;0.00;0.00;;;23.10;68.30;;;;;;5067112;28;20131;-70
2023/06/26 00:55:54;;;;;;;0.00;0.00;;;23.10;68.60;;;;;;5067787;28;20496;-70
2023/06/26 00:58:23;;;;;;;0.10;0.10;;;23.10;68.50;;;;;;5068025;28;20076;-69
2023/06/26 01:00:49;;;;;;;0.00;0.00;;;23.10;68.20;;;;;;5067234;28;20044;-70
2023/06/26 01:03:14;;;;;;;0.00;0.00;;;23.20;68.10;;;;;;5068188;28;20044;-70
2023/06/26 01:05:40;;;;;;;0.00;0.00;;;23.20;68.20;;;;;;5066408;28;20048;-70
2023/06/26 01:08:08;;;;;;;0.00;0.00;;;23.20;67.90;;;;;;5068048;28;20665;-70
2023/06/26 01:10:33;;;;;;;0.00;0.00;;;23.10;68.20;;;;;;5067594;28;20090;-69
2023/06/26 01:12:59;;;;;;;0.00;0.00;;;23.10;67.90;;;;;;5054673;28;20084;-70
2023/06/26 01:15:25;;;;;;;0.00;0.00;;;23.10;68.10;;;;;;5071094;28;20041;-69
2023/06/26 01:17:51;;;;;;;0.00;0.00;;;23.10;68.20;;;;;;5071301;28;20072;-69
2023/06/26 01:20:18;;;;;;;0.00;0.00;;;23.10;68.00;;;;;;5071108;28;20082;-70
2023/06/26 01:23:08;;;;;;;0.00;0.00;;;23.10;68.00;;;;;;5070930;28;20047;-69
2023/06/26 01:25:47;;;;;;;0.00;0.00;;;23.10;68.20;;;;;;5067844;28;20068;-69
2023/06/26 01:28:14;;;;;;;0.00;0.00;;;23.10;68.90;;;;;;5071179;28;20052;-69
2023/06/26 01:30:42;;;;;;;0.00;0.00;;;23.10;68.80;;;;;;5071038;28;20456;-70
2023/06/26 01:33:08;;;;;;;0.00;0.00;;;23.00;69.00;;;;;;5069879;28;20048;-70
2023/06/26 01:35:35;;;;;;;0.05;0.05;;;23.00;69.10;;;;;;5071160;28;20123;-69
2023/06/26 01:38:29;;;;;;;0.00;0.00;;;23.00;69.30;;;;;;5070185;28;20038;-69
2023/06/26 01:40:55;;;;;;;0.00;0.00;;;23.00;69.20;;;;;;5053270;28;20178;-70
2023/06/26 01:43:30;;;;;;;0.00;0.00;;;22.90;69.50;;;;;;5070931;28;20119;-69
2023/06/26 01:46:06;;;;;;;0.00;0.00;;;22.90;69.30;;;;;;5070663;28;20456;-70
2023/06/26 01:48:57;;;;;;;0.00;0.00;;;22.90;69.20;;;;;;5070653;28;20399;-70
2023/06/26 01:51:29;;;;;;;0.00;0.00;;;22.90;69.70;;;;;;5069068;28;20063;-70
2023/06/26 01:53:58;;;;;;;0.00;0.00;;;22.90;69.60;;;;;;5070814;28;20071;-69
2023/06/26 01:56:24;;;;;;;0.00;0.00;;;22.80;69.70;;;;;;5071144;28;20048;-70
2023/06/26 01:58:54;;;;;;;0.00;0.00;;;22.80;69.40;;;;;;5070676;28;20405;-70
2023/06/26 02:01:20;;;;;;;0.30;0.30;;;22.70;69.30;;;;;;5070313;28;20037;-70
2023/06/26 02:03:46;;;;;;;0.00;0.00;;;22.70;69.60;;;;;;5052660;28;20057;-69
2023/06/26 02:06:11;;;;;;;0.00;0.00;;;22.60;70.10;;;;;;5052223;28;20424;-70
2023/06/26 02:08:37;;;;;;;0.00;0.00;;;22.70;69.80;;;;;;5067856;28;20036;-70
2023/06/26 02:11:02;;;;;;;0.00;0.00;;;22.70;70.70;;;;;;5070244;28;20032;-70
2023/06/26 02:13:28;;;;;;;0.10;0.10;;;22.70;70.90;;;;;;5068667;28;20048;-70
2023/06/26 02:15:53;;;;;;;0.00;0.00;;;22.70;71.50;;;;;;5070765;28;20044;-70
2023/06/26 02:18:21;;;;;;;0.00;0.00;;;22.70;71.50;;;;;;5070206;28;20036;-70
2023/06/26 02:20:46;;;;;;;0.10;0.10;;;22.70;71.00;;;;;;5068927;28;20062;-70
2023/06/26 02:23:12;;;;;;;0.00;0.00;;;22.70;71.30;;;;;;5069966;28;20417;-70
2023/06/26 02:25:38;;;;;;;0.00;0.00;;;22.70;71.80;;;;;;5070171;28;20041;-70
2023/06/26 02:28:03;;;;;;;0.00;0.00;;;22.70;70.50;;;;;;5070204;28;20554;-70
2023/06/26 02:30:29;;;;;;;0.00;0.00;;;22.60;71.30;;;;;;5070357;28;20052;-70
2023/06/26 02:32:55;;;;;;;0.00;0.00;;;22.70;70.20;;;;;;5069295;28;20079;-70
2023/06/26 02:35:20;;;;;;;0.20;0.20;;;22.60;69.70;;;;;;5069364;28;20080;-70
2023/06/26 02:37:46;;;;;;;0.00;0.00;;;22.60;68.80;;;;;;5069649;28;20040;-70
2023/06/26 02:40:11;;;;;;;0.15;0.15;;;22.70;69.10;;;;;;5070117;28;20084;-70
2023/06/26 02:42:37;;;;;;;0.52;0.38;;;22.60;69.10;;;;;;5069349;28;20040;-70
2023/06/26 02:45:03;;;;;;;0.00;0.00;;;22.50;69.60;;;;;;5070120;28;20040;-71
2023/06/26 02:47:28;;;;;;;0.63;0.55;;;22.50;70.00;;;;;;5069301;28;20569;-70
2023/06/26 02:49:54;;;;;;;0.00;0.00;;;22.40;70.20;;;;;;5070087;28;20052;-70
2023/06/26 02:52:19;;;;;;;0.00;0.00;;;22.30;70.60;;;;;;5069566;28;20056;-70
2023/06/26 02:54:45;;;;;;;0.00;0.00;;;22.30;70.70;;;;;;5068506;28;20084;-70
2023/06/26 02:57:14;;;;;;;0.55;0.55;;;22.20;71.10;;;;;;5067750;28;20396;-70
2023/06/26 02:59:40;;;;;;;0.45;0.20;;;22.20;70.80;;;;;;5068591;28;20123;-70
2023/06/26 03:02:05;;;;;;;0.00;0.00;;;22.20;71.60;;;;;;5070043;28;20147;-70
2023/06/26 03:04:31;;;;;;;0.00;0.00;;;22.10;71.70;;;;;;5068673;28;20044;-70
2023/06/26 03:06:57;;;;;;;0.00;0.00;;;22.00;72.40;;;;;;5068888;28;20041;-70
2023/06/26 03:09:22;;;;;;;0.55;0.55;;;22.00;72.70;;;;;;5070704;28;20045;-70
2023/06/26 03:11:48;;;;;;;0.00;0.00;;;21.90;73.20;;;;;;5069410;28;20068;-70
2023/06/26 03:14:13;;;;;;;0.00;0.00;;;21.80;72.50;;;;;;5068142;28;20127;-70
2023/06/26 03:16:39;;;;;;;0.00;0.00;;;21.70;73.70;;;;;;5068540;28;20040;-69
2023/06/26 03:19:05;;;;;;;0.28;0.28;;;21.70;73.50;;;;;;5068958;28;20127;-70
2023/06/26 03:21:31;;;;;;;0.38;0.38;;;21.60;74.10;;;;;;5083281;28;20044;-70
2023/06/26 03:23:57;;;;;;;3.70;1.88;;;21.60;73.90;;;;;;5069382;28;20044;-70
2023/06/26 03:26:28;;;;;;;0.17;0.17;;;21.60;75.00;;;;;;5068734;28;20036;-70
2023/06/26 03:28:54;;;;;;;0.00;0.00;;;21.50;74.50;;;;;;5068621;28;20044;-71
2023/06/26 03:31:20;;;;;;;0.73;0.50;;;21.50;75.80;;;;;;5069279;28;20429;-71
2023/06/26 03:33:46;;;;;;;0.17;0.17;;;21.40;75.80;;;;;;5068195;28;20052;-71
2023/06/26 03:36:11;;;;;;;0.08;0.08;;;21.30;75.70;;;;;;5050349;28;20040;-71
2023/06/26 03:38:37;;;;;;;0.00;0.00;;;21.40;76.20;;;;;;5069043;28;20463;-70
2023/06/26 03:41:03;;;;;;;0.30;0.30;;;21.30;76.50;;;;;;5067824;28;20044;-71
2023/06/26 03:43:29;;;;;;;0.03;0.03;;;21.20;76.20;;;;;;5051162;28;20036;-71
2023/06/26 03:45:54;;;;;;;0.10;0.10;;;21.20;77.60;;;;;;5068132;28;20037;-71
2023/06/26 03:48:20;;;;;;;0.10;0.10;;;21.20;77.10;;;;;;5069440;28;20082;-71
2023/06/26 03:50:46;;;;;;;0.00;0.00;;;21.10;78.70;;;;;;5067780;28;20053;-71
2023/06/26 03:53:12;;;;;;;0.65;0.57;;;21.00;77.90;;;;;;5068985;28;20055;-71
2023/06/26 03:55:38;;;;;;;0.22;0.17;;;21.00;78.60;;;;;;5071426;28;20435;-70
2023/06/26 03:58:04;;;;;;;0.00;0.00;;;20.90;79.20;;;;;;5068835;28;20045;-71
2023/06/26 04:00:30;;;;;;;0.00;0.00;;;20.80;79.20;;;;;;5068492;28;20043;-71
2023/06/26 04:02:57;;;;;;;0.95;0.57;;;20.80;81.40;;;;;;5068718;28;20053;-71
2023/06/26 04:05:22;;;;;;;0.00;0.00;;;20.60;81.30;;;;;;5067231;28;20406;-71
2023/06/26 04:07:52;;;;;;;0.32;0.20;;;20.60;81.30;;;;;;5068575;28;20058;-71
2023/06/26 04:10:18;;;;;;;1.10;0.47;;;20.50;82.40;;;;;;5068498;28;20040;-71
2023/06/26 04:12:43;;;;;;;1.77;0.95;;;20.50;82.30;;;;;;5067517;28;20044;-71
2023/06/26 04:15:09;;;;;;;0.03;0.03;;;20.40;81.70;;;;;;5068126;28;20047;-70
2023/06/26 04:17:35;;;;;;;1.10;1.00;;;20.40;81.90;;;;;;5068534;28;20109;-70
2023/06/26 04:20:00;;;;;;;0.00;0.00;;;20.20;83.20;;;;;;5068753;28;20048;-71
2023/06/26 04:22:26;;;;;;;0.55;0.52;;;20.20;82.70;;;;;;5068761;28;20465;-71
2023/06/26 04:24:51;;;;;;;0.20;0.20;;;20.20;83.30;;;;;;5073247;28;20407;-71
2023/06/26 04:27:18;;;;;;;0.03;0.03;;;20.10;83.40;;;;;;5065892;28;20081;-71
2023/06/26 04:29:43;;;;;;;0.20;0.20;;;20.10;83.40;;;;;;5067997;28;20484;-71
2023/06/26 04:32:09;;;;;;;0.10;0.10;;;20.00;84.10;;;;;;5065911;28;20044;-71
2023/06/26 04:34:36;;;;;;;0.30;0.30;;;19.90;84.30;;;;;;5067232;28;20102;-71
2023/06/26 04:37:03;;;;;;;0.00;0.00;;;20.00;84.50;;;;;;5068477;28;20051;-71
2023/06/26 04:39:30;;;;;;;0.00;0.00;;;19.90;84.80;;;;;;5068241;28;20043;-71
2023/06/26 04:41:55;;;;;;;0.05;0.05;;;19.80;84.70;;;;;;5072085;28;20045;-71
2023/06/26 04:44:21;;;;;;;0.40;0.40;;;19.90;84.10;;;;;;5068887;28;20052;-71
2023/06/26 04:46:46;;;;;;;0.00;0.00;;;19.90;84.00;;;;;;5069409;28;20056;-70
2023/06/26 04:49:12;;;;;;;0.00;0.00;;;19.90;83.80;;;;;;5070701;28;20049;-71
2023/06/26 04:51:40;;;;;;;0.20;0.15;;;19.80;83.50;;;;;;5071193;28;20056;-71
2023/06/26 04:54:10;;;;;;;0.00;0.00;;;19.80;82.80;;;;;;5072088;28;20056;-71
2023/06/26 04:56:36;;;;;;;0.00;0.00;;;19.70;82.40;;;;;;5072061;28;20032;-71
2023/06/26 04:59:02;;;;;;;0.00;0.00;;;19.60;82.20;;;;;;5070723;28;20036;-70
2023/06/26 05:01:29;;;;;;;0.13;0.13;;;19.60;82.50;;;;;;5071798;28;20127;-70
2023/06/26 05:03:56;;;;;;;0.00;0.00;;;19.50;82.60;;;;;;5071866;28;20074;-69
2023/06/26 05:06:22;;;;;;;0.00;0.00;;;19.50;82.70;;;;;;5071265;28;20120;-70
2023/06/26 05:08:47;;;;;;;1.17;0.13;;;19.50;82.80;;;;;;5071931;28;20052;-70
2023/06/26 05:11:13;;;;;;;0.40;0.40;;;19.40;83.20;;;;;;5071495;28;20033;-70
2023/06/26 05:13:38;;;;;;;0.05;0.05;;;19.40;82.90;;;;;;5071531;28;20048;-70
2023/06/26 05:16:04;;;;;;;0.00;0.00;;;19.40;82.40;;;;;;5071171;28;20123;-71
2023/06/26 05:18:30;;;;;;;0.10;0.10;;;19.50;82.00;;;;;;5071243;28;20284;-70
2023/06/26 05:20:55;;;;;;;2.40;1.67;;;19.50;81.80;;;;;;5071564;28;20037;-70
2023/06/26 05:23:23;;;;;;;0.00;0.00;;;19.50;81.80;;;;;;5072068;28;20041;-70
2023/06/26 05:25:50;;;;;;;0.00;0.00;;;19.50;81.40;;;;;;5071844;28;20485;-70
2023/06/26 05:28:15;;;;;;;0.00;0.00;;;19.50;81.00;;;;;;5070532;28;20106;-71
2023/06/26 05:30:41;;;;;;;0.00;0.00;;;19.40;80.90;;;;;;5070916;28;20041;-71
2023/06/26 05:33:10;;;;;;;0.30;0.30;;;19.40;80.70;;;;;;5070754;28;20052;-71
2023/06/26 05:35:36;;;;;;;0.08;0.08;;;19.40;80.70;;;;;;5070430;28;20565;-70
2023/06/26 05:38:02;;;;;;;0.00;0.00;;;19.30;80.80;;;;;;5070344;28;20090;-71
2023/06/26 05:40:28;;;;;;;9.52;0.70;;;19.30;80.70;;;;;;5059918;28;20091;-71
2023/06/26 05:42:54;;;;;;;0.15;0.15;;;19.30;80.90;;;;;;5070802;28;20374;-72
2023/06/26 05:45:19;;;;;;;0.05;0.05;;;19.30;81.00;;;;;;5070681;28;20087;-71
2023/06/26 05:47:46;;;;;;;0.00;0.00;;;19.30;81.00;;;;;;5070027;28;20574;-71
2023/06/26 05:50:12;;;;;;;0.00;0.00;;;19.30;80.50;;;;;;5069364;28;20112;-69
2023/06/26 05:52:38;;;;;;;2.30;1.75;;;19.40;80.00;;;;;;5068818;28;20063;-69
2023/06/26 05:55:05;;;;;;;0.20;0.20;;;19.50;79.30;;;;;;5069228;28;20052;-70
2023/06/26 05:57:31;;;;;;;0.10;0.10;;;19.50;79.00;;;;;;5068244;28;20044;-70
2023/06/26 05:59:57;;;;;;;0.00;0.00;;;19.60;77.90;;;;;;5070308;28;20520;-70
2023/06/26 06:02:23;;;;;;;0.00;0.00;;;19.60;78.10;;;;;;5068574;28;20068;-69
2023/06/26 06:04:48;;;;;;;0.00;0.00;;;19.70;77.60;;;;;;5069858;28;20080;-69
2023/06/26 06:07:14;;;;;;;0.00;0.00;;;19.60;76.80;;;;;;5070035;28;20047;-67
2023/06/26 06:09:40;;;;;;;0.55;0.55;;;19.60;76.60;;;;;;5068605;28;20102;-68
2023/06/26 06:12:07;;;;;;;0.00;0.00;;;19.60;76.80;;;;;;5068501;28;20055;-67
2023/06/26 06:14:34;;;;;;;0.00;0.00;;;19.70;76.50;;;;;;5068085;28;20059;-67
2023/06/26 06:17:00;;;;;;;0.00;0.00;;;19.70;76.40;;;;;;5069914;28;20048;-67
2023/06/26 06:19:25;;;;;;;0.00;0.00;;;19.80;76.60;;;;;;5069678;28;20055;-68
2023/06/26 06:21:51;;;;;;;0.03;0.03;;;19.80;76.60;;;;;;5067764;28;20086;-68
2023/06/26 06:24:17;;;;;;;0.00;0.00;;;19.80;74.50;;;;;;5067533;28;20036;-70
2023/06/26 06:26:43;;;;;;;0.00;0.00;;;20.00;74.00;;;;;;5068847;28;20051;-66
2023/06/26 06:29:08;;;;;;;0.10;0.10;;;19.90;73.00;;;;;;5069860;28;20131;-68
2023/06/26 06:31:34;;;;;;;0.00;0.00;;;20.00;74.00;;;;;;5050031;28;20044;-68
2023/06/26 06:33:59;;;;;;;0.00;0.00;;;20.00;74.90;;;;;;5059528;28;20575;-66
2023/06/26 06:36:25;;;;;;;0.00;0.00;;;20.00;74.30;;;;;;5069007;28;20474;-69
2023/06/26 06:38:51;;;;;;;0.00;0.00;;;20.00;74.20;;;;;;5068842;28;20052;-69
2023/06/26 06:41:16;;;;;;;0.00;0.00;;;20.00;73.60;;;;;;5069513;28;20078;-68
2023/06/26 06:43:42;;;;;;;0.00;0.00;;;20.00;72.30;;;;;;5069517;28;20087;-67
2023/06/26 06:46:08;;;;;;;0.00;0.00;;;19.90;71.80;;;;;;5070013;28;20045;-67
2023/06/26 06:48:34;;;;;;;0.00;0.00;;;20.00;71.20;;;;;;5069808;28;20044;-67
2023/06/26 06:51:00;;;;;;;0.73;0.73;;;20.00;72.00;;;;;;5069933;28;20076;-67
2023/06/26 06:53:26;;;;;;;0.00;0.00;;;20.10;72.00;;;;;;5069782;28;20045;-66
2023/06/26 06:55:51;;;;;;;0.00;0.00;;;20.10;72.30;;;;;;5069490;28;20178;-68
2023/06/26 06:58:19;;;;;;;0.00;0.00;;;20.10;72.60;;;;;;5069191;28;20401;-68
2023/06/26 07:00:45;;;;;;;1.38;1.27;;;20.10;72.50;;;;;;5067947;28;20044;-69
2023/06/26 07:03:10;;;;;;;0.00;0.00;;;20.20;72.70;;;;;;5068264;28;20357;-69
2023/06/26 07:05:36;;;;;;;0.00;0.00;;;20.20;73.50;;;;;;5067627;28;20040;-69
2023/06/26 07:08:02;;;;;;;0.00;0.00;;;20.30;74.00;;;;;;5084968;28;20155;-69
2023/06/26 07:10:28;;;;;;;0.00;0.00;;;20.40;73.70;;;;;;5068576;28;20496;-68
2023/06/26 07:12:54;;;;;;;0.00;0.00;;;20.40;73.00;;;;;;5067693;28;20083;-68
2023/06/26 07:15:20;;;;;;;0.00;0.00;;;20.30;73.50;;;;;;5068515;28;20375;-68
2023/06/26 07:17:45;;;;;;;0.00;0.00;;;20.40;73.00;;;;;;5069271;28;20044;-69
2023/06/26 07:20:15;;;;;;;0.00;0.00;;;20.40;72.80;;;;;;5068183;28;20044;-69
2023/06/26 07:22:41;;;;;;;0.00;0.00;;;20.40;72.90;;;;;;5068543;28;20060;-69
2023/06/26 07:25:09;;;;;;;0.00;0.00;;;20.30;73.60;;;;;;5068761;28;20055;-69
2023/06/26 07:27:36;;;;;;;0.00;0.00;;;20.30;72.60;;;;;;5068297;28;20048;-68
2023/06/26 07:30:02;;;;;;;0.00;0.00;;;20.40;73.20;;;;;;5067952;28;20496;-68
2023/06/26 07:32:28;;;;;;;0.00;0.00;;;20.40;72.70;;;;;;5067801;28;20036;-68
2023/06/26 07:34:53;;;;;;;0.10;0.10;;;20.40;73.10;;;;;;5068312;28;20382;-68
2023/06/26 07:37:19;;;;;;;0.00;0.00;;;20.40;73.40;;;;;;5067966;28;20041;-68
2023/06/26 07:39:45;;;;;;;0.00;0.00;;;20.40;73.10;;;;;;5067285;28;20040;-69
2023/06/26 07:42:10;;;;;;;0.00;0.00;;;20.40;73.50;;;;;;5068761;28;20044;-68
2023/06/26 07:44:36;;;;;;;0.43;0.43;;;20.50;73.70;;;;;;5067167;28;20072;-69
2023/06/26 07:47:02;;;;;;;0.05;0.05;;;20.50;72.40;;;;;;5066737;28;20157;-68
2023/06/26 07:49:27;;;;;;;0.00;0.00;;;20.50;72.80;;;;;;5069067;28;20043;-68
2023/06/26 07:51:53;;;;;;;0.00;0.00;;;20.40;73.10;;;;;;5067359;28;20293;-68
2023/06/26 07:54:19;;;;;;;0.00;0.00;;;20.30;73.40;;;;;;5068444;28;20040;-68
2023/06/26 07:56:58;;;;;;;0.10;0.10;;;20.40;73.70;;;;;;5068459;28;20044;-69
2023/06/26 07:59:25;;;;;;;0.00;0.00;;;20.40;73.30;;;;;;5068593;28;20041;-68
2023/06/26 08:01:52;;;;;;;0.00;0.00;;;20.30;73.30;;;;;;5068360;28;20044;-69
2023/06/26 08:04:20;;;;;;;0.08;0.08;;;20.30;72.70;;;;;;5049493;28;20084;-68
2023/06/26 08:06:47;;;;;;;0.10;0.10;;;20.20;72.40;;;;;;5063981;28;20594;-69
2023/06/26 08:09:13;;;;;;;7.13;1.00;;;20.10;71.90;;;;;;5065049;28;20351;-68
2023/06/26 08:11:39;;;;;;;0.08;0.08;;;20.10;72.60;;;;;;5068038;28;20052;-68
2023/06/26 08:14:04;;;;;;;0.00;0.00;;;20.20;73.10;;;;;;5068248;28;20045;-68
2023/06/26 08:16:30;;;;;;;0.00;0.00;;;20.20;73.80;;;;;;5068850;28;20044;-69
2023/06/26 08:18:55;;;;;;;0.00;0.00;;;20.30;73.20;;;;;;5068242;28;20476;-68
2023/06/26 08:21:21;;;;;;;0.00;0.00;;;20.40;71.50;;;;;;5070241;28;20043;-69
2023/06/26 08:23:46;;;;;;;0.15;0.15;;;20.30;71.80;;;;;;5072154;28;20036;-69
2023/06/26 08:26:13;;;;;;;0.05;0.05;;;20.40;71.50;;;;;;5072569;28;20421;-69
2023/06/26 08:28:38;;;;;;;0.00;0.00;;;20.30;71.50;;;;;;5072345;28;20044;-69
2023/06/26 08:31:04;;;;;;;1.48;0.38;;;20.40;72.10;;;;;;5071945;28;20098;-69
2023/06/26 08:33:29;;;;;;;0.13;0.13;;;20.50;72.20;;;;;;5071163;28;20089;-68
2023/06/26 08:35:55;;;;;;;0.32;0.32;;;20.40;71.70;;;;;;5071632;28;20159;-68
2023/06/26 08:38:21;;;;;;;0.00;0.00;;;20.40;71.90;;;;;;5072060;28;20101;-69
2023/06/26 08:40:47;;;;;;;0.00;0.00;;;20.50;71.90;;;;;;5070478;28;20483;-68
2023/06/26 08:43:13;;;;;;;0.00;0.00;;;20.50;72.80;;;;;;5070137;28;20048;-68
2023/06/26 08:45:38;;;;;;;0.30;0.20;;;20.40;73.10;;;;;;5073500;28;20036;-68
2023/06/26 08:48:09;;;;;;;0.00;0.00;;;20.50;73.00;;;;;;5071075;28;20430;-67
2023/06/26 08:50:37;;;;;;;0.15;0.15;;;20.50;72.00;;;;;;5071396;28;20033;-68
2023/06/26 08:53:31;;;;;;;1.40;0.82;;;20.70;72.00;;;;;;5072145;28;20055;-68
2023/06/26 08:55:59;;;;;;;0.10;0.10;;;20.50;71.40;;;;;;5052017;28;20512;-68
2023/06/26 08:58:25;;;;;;;2.40;0.35;;;20.50;70.70;;;;;;5060406;28;20063;-68
2023/06/26 09:00:51;;;;;;;0.00;0.00;;;20.50;71.60;;;;;;5070468;28;20044;-68
2023/06/26 09:03:17;;;;;;;0.10;0.10;;;20.50;71.50;;;;;;5071918;28;20080;-67
2023/06/26 09:05:42;;;;;;;0.10;0.10;;;20.60;72.00;;;;;;5071573;28;20090;-68
2023/06/26 09:08:08;;;;;;;0.00;0.00;;;20.60;70.60;;;;;;5071728;28;20063;-68
2023/06/26 09:10:34;;;;;;;0.00;0.00;;;20.50;70.00;;;;;;5070324;28;20481;-68
2023/06/26 09:13:01;;;;;;;0.15;0.15;;;20.50;70.00;;;;;;5070820;28;20476;-69
2023/06/26 09:15:28;;;;;;;0.40;0.40;;;20.50;70.30;;;;;;5071862;28;20045;-68
2023/06/26 09:17:57;;;;;;;0.00;0.00;;;20.60;71.00;;;;;;5072008;28;20047;-67
2023/06/26 09:20:22;;;;;;;1.13;0.55;;;20.40;70.90;;;;;;5071670;28;20072;-67
2023/06/26 09:22:48;;;;;;;0.22;0.22;;;20.40;71.20;;;;;;5070951;28;20520;-68
2023/06/26 09:25:14;;;;;;;0.00;0.00;;;20.60;70.80;;;;;;5071737;28;20397;-68
2023/06/26 09:27:39;;;;;;;0.00;0.00;;;20.80;72.50;;;;;;5053431;28;20120;-68
2023/06/26 09:30:09;;;;;;;0.00;0.00;;;20.70;71.10;;;;;;5070362;28;20071;-68
2023/06/26 09:32:37;;;;;;;0.10;0.10;;;20.70;71.10;;;;;;5070169;28;20041;-68
2023/06/26 09:35:04;;;;;;;0.00;0.00;;;20.80;71.00;;;;;;5070768;28;20081;-68
2023/06/26 09:37:30;;;;;;;0.00;0.00;;;20.80;70.30;;;;;;5068937;28;20058;-68
2023/06/26 09:39:55;;;;;;;0.10;0.10;;;20.80;70.50;;;;;;5070394;28;20061;-68
2023/06/26 09:42:21;;;;;;;1.42;1.33;;;20.90;72.30;;;;;;5069712;28;20036;-68
2023/06/26 09:44:47;;;;;;;0.10;0.10;;;20.80;70.20;;;;;;5071018;28;20123;-68
2023/06/26 09:47:17;;;;;;;0.00;0.00;;;20.70;70.40;;;;;;5070229;28;20563;-68
2023/06/26 09:49:43;;;;;;;0.00;0.00;;;20.60;70.20;;;;;;5070866;28;20050;-68
2023/06/26 09:52:09;;;;;;;0.20;0.20;;;20.50;70.40;;;;;;5070833;28;20531;-68
2023/06/26 09:54:35;;;;;;;0.82;0.63;;;20.40;70.50;;;;;;5070616;28;20058;-68
2023/06/26 09:57:16;;;;;;;0.10;0.10;;;20.50;70.40;;;;;;5070954;28;20044;-68
2023/06/26 09:59:42;;;;;;;0.00;0.00;;;20.60;69.10;;;;;;5068963;28;20101;-69
2023/06/26 10:02:08;;;;;;;0.00;0.00;;;20.80;69.30;;;;;;5070842;28;20036;-68
2023/06/26 10:04:35;;;;;;;0.13;0.13;;;20.90;68.80;;;;;;5070634;28;20489;-68
2023/06/26 10:07:11;;;;;;;0.40;0.40;;;20.70;69.40;;;;;;5070929;28;20036;-69
2023/06/26 10:09:41;;;;;;;0.10;0.10;;;20.70;68.40;;;;;;5070568;28;20039;-66
2023/06/26 10:12:17;;;;;;;0.00;0.00;;;20.80;68.90;;;;;;5070557;28;20053;-66
2023/06/26 10:14:43;;;;;;;0.00;0.00;;;20.70;69.40;;;;;;5070217;28;20055;-69
2023/06/26 10:17:11;;;;;;;0.05;0.00;;;20.80;68.30;;;;;;5070477;28;20427;-68
2023/06/26 10:19:38;;;;;;;1.42;0.98;;;20.60;68.30;;;;;;5070164;28;20089;-69
2023/06/26 10:22:04;;;;;;;0.00;0.00;;;20.60;68.30;;;;;;5070362;28;20044;-68
2023/06/26 10:24:33;;;;;;;0.93;0.65;;;20.70;69.00;;;;;;5052744;28;20051;-68
2023/06/26 10:27:04;;;;;;;0.08;0.08;;;20.80;68.60;;;;;;5070282;28;20041;-68
2023/06/26 10:29:31;;;;;;;0.00;0.00;;;20.60;68.80;;;;;;5070324;28;20041;-69
2023/06/26 10:31:59;;;;;;;2.47;0.90;;;20.80;69.30;;;;;;5052345;28;20113;-68
2023/06/26 10:34:25;;;;;;;0.00;0.00;;;21.00;67.60;;;;;;5070198;28;20098;-69
2023/06/26 10:37:01;;;;;;;0.00;0.00;;;20.90;67.00;;;;;;5066484;28;20048;-68
2023/06/26 10:39:26;;;;;;;0.00;0.00;;;20.90;66.40;;;;;;5069414;28;20047;-68
2023/06/26 10:41:55;;;;;;;0.00;0.00;;;20.90;67.00;;;;;;5069829;28;20048;-69
2023/06/26 10:44:21;;;;;;;0.00;0.00;;;20.90;66.70;;;;;;5069684;28;20596;-68
2023/06/26 10:46:53;;;;;;;0.00;0.00;;;21.00;67.50;;;;;;5069381;28;20131;-68
2023/06/26 10:49:23;;;;;;;0.00;0.00;;;21.10;66.10;;;;;;5069272;28;20094;-68
2023/06/26 10:51:49;;;;;;;0.00;0.00;;;21.00;66.30;;;;;;5069239;28;20060;-69
2023/06/26 10:54:18;;;;;;;0.10;0.10;;;21.00;66.00;;;;;;5069215;28;20045;-67
2023/06/26 10:56:48;;;;;;;0.00;0.00;;;21.00;65.10;;;;;;5068625;28;20055;-67
2023/06/26 10:59:22;;;;;;;0.00;0.00;;;21.00;63.70;;;;;;5070115;28;20055;-67
2023/06/26 11:02:07;;;;;;;0.98;0.88;;;21.10;62.30;;;;;;5068623;28;20048;-69
2023/06/26 11:04:40;;;;;;;0.00;0.00;;;21.10;62.10;;;;;;5068976;28;20048;-68
2023/06/26 11:07:21;;;;;;;0.00;0.00;;;21.30;60.90;;;;;;5045426;28;20454;-68
2023/06/26 11:10:00;;;;;;;0.00;0.00;;;21.10;61.70;;;;;;5055452;28;20052;-68
2023/06/26 11:12:41;;;;;;;0.00;0.00;;;21.10;62.20;;;;;;5066141;28;20573;-68
2023/06/26 11:15:15;;;;;;;0.00;0.00;;;20.90;62.20;;;;;;5065365;28;20039;-68
2023/06/26 11:17:41;;;;;;;0.10;0.10;;;21.00;63.70;;;;;;5065251;28;20051;-69
2023/06/26 11:20:09;;;;;;;0.00;0.00;;;21.00;62.10;;;;;;5066388;28;20044;-68
2023/06/26 11:22:36;;;;;;;0.38;0.38;;;21.10;62.50;;;;;;5065402;28;20182;-68
2023/06/26 11:25:03;;;;;;;0.00;0.00;;;21.20;64.60;;;;;;5048303;28;20080;-68
2023/06/26 11:27:38;;;;;;;0.00;0.00;;;21.10;64.00;;;;;;5066188;28;20040;-68
2023/06/26 11:30:08;;;;;;;0.00;0.00;;;21.00;62.80;;;;;;5066276;28;20094;-68
2023/06/26 11:32:35;;;;;;;0.00;0.00;;;20.90;64.00;;;;;;5066417;28;20040;-68
2023/06/26 11:35:01;;;;;;;0.00;0.00;;;21.00;65.40;;;;;;5064244;28;20212;-68
2023/06/26 11:37:27;;;;;;;0.00;0.00;;;21.00;63.60;;;;;;5065269;28;20684;-68
2023/06/26 11:39:52;;;;;;;1.08;1.08;;;21.10;62.60;;;;;;5064029;28;20050;-68
2023/06/26 11:42:20;;;;;;;0.00;0.00;;;21.10;64.00;;;;;;5047027;28;20044;-68
2023/06/26 11:44:46;;;;;;;0.13;0.10;;;21.10;64.50;;;;;;5058599;28;20067;-68
2023/06/26 11:47:16;;;;;;;0.00;0.00;;;21.00;64.10;;;;;;5064769;28;20052;-68
2023/06/26 11:49:43;;;;;;;0.10;0.10;;;21.10;64.70;;;;;;5065562;28;20044;-67
2023/06/26 11:52:08;;;;;;;0.00;0.00;;;21.00;64.30;;;;;;5064527;28;20241;-71
2023/06/26 11:54:34;;;;;;;0.20;0.20;;;20.80;63.80;;;;;;5064981;28;20056;-70
2023/06/26 11:57:01;;;;;;;0.00;0.00;;;20.50;65.90;;;;;;5065392;28;20036;-70
2023/06/26 11:59:38;;;;;;;0.35;0.28;;;20.30;66.40;;;;;;5064255;28;20046;-71
2023/06/26 12:02:09;;;;;;;0.00;0.00;;;20.30;66.90;;;;;;5065043;28;20507;-70
2023/06/26 12:04:37;;;;;;;0.00;0.00;;;20.50;66.10;;;;;;5065825;28;20069;-69
2023/06/26 12:07:06;;;;;;;0.00;0.00;;;20.70;66.10;;;;;;5066017;28;20482;-69
2023/06/26 12:09:35;;;;;;;0.00;0.00;;;20.80;66.60;;;;;;5064942;28;20132;-67
2023/06/26 12:12:01;;;;;;;0.00;0.00;;;20.70;65.60;;;;;;5062743;28;20466;-67
2023/06/26 12:14:28;;;;;;;0.00;0.00;;;20.90;65.10;;;;;;5063282;28;20041;-68
2023/06/26 12:16:54;;;;;;;0.00;0.00;;;20.90;63.20;;;;;;5066075;28;20496;-67
2023/06/26 12:19:26;;;;;;;0.00;0.00;;;21.00;63.60;;;;;;5064927;28;20040;-68
2023/06/26 12:21:52;;;;;;;0.00;0.00;;;21.00;63.80;;;;;;5060306;28;20566;-67
2023/06/26 12:24:21;;;;;;;0.13;0.13;;;21.10;64.00;;;;;;5065902;28;20127;-67
2023/06/26 12:26:56;;;;;;;0.00;0.00;;;21.20;63.50;;;;;;5062926;28;20032;-67
2023/06/26 12:29:29;;;;;;;0.00;0.00;;;21.00;65.60;;;;;;5064830;28;20048;-67
2023/06/26 12:31:54;;;;;;;0.00;0.00;;;20.90;64.80;;;;;;5064904;28;21195;-67
2023/06/26 12:34:40;;;;;;;0.30;0.30;;;20.90;65.10;;;;;;5064751;28;20159;-68
2023/06/26 12:37:10;;;;;;;0.00;0.00;;;20.90;65.00;;;;;;5064388;28;20048;-67
2023/06/26 12:39:45;;;;;;;0.00;0.00;;;21.00;65.00;;;;;;5065592;28;20401;-67
2023/06/26 12:42:23;;;;;;;0.00;0.00;;;21.10;65.60;;;;;;5065632;28;20597;-66
2023/06/26 12:44:50;;;;;;;0.00;0.00;;;21.10;64.10;;;;;;5053963;28;20040;-66
2023/06/26 12:47:17;;;;;;;0.45;0.43;;;21.10;64.20;;;;;;5065625;28;20032;-66
2023/06/26 12:49:45;;;;;;;0.00;0.00;;;21.00;65.60;;;;;;5065781;28;20566;-67